sensor_id;sensor_type;location;lat;lon;timestamp;pressure;altitude;pressure_sealevel;temperature;humidity
72116;BME280;59991;52.140;5.428;2022-07-12T00:01:39;102470.88;;;16.35;75.23
72116;BME280;59991;52.140;5.428;2022-07-12T00:03:41;102469.28;;;16.34;75.41
72116;BME280;59991;52.140;5.428;2022-07-12T00:05:42;102481.09;;;16.35;75.60
72116;BME280;59991;52.140;5.428;2022-07-12T00:10:04;102473.53;;;16.28;75.94
72116;BME280;59991;52.140;5.428;2022-07-12T00:12:06;102477.41;;;16.23;75.17
72116;BME280;59991;52.140;5.428;2022-07-12T00:14:08;102473.06;;;16.22;75.57
72116;BME280;59991;52.140;5.428;2022-07-12T00:16:10;102479.75;;;16.21;75.73
72116;BME280;59991;52.140;5.428;2022-07-12T00:18:12;102481.28;;;16.19;76.23
72116;BME280;59991;52.140;5.428;2022-07-12T00:20:14;102480.06;;;16.13;76.29
72116;BME280;59991;52.140;5.428;2022-07-12T00:22:15;102481.59;;;16.10;75.75
72116;BME280;59991;52.140;5.428;2022-07-12T00:24:17;102476.03;;;16.07;75.87
72116;BME280;59991;52.140;5.428;2022-07-12T00:26:19;102480.31;;;16.04;76.18
72116;BME280;59991;52.140;5.428;2022-07-12T00:28:20;102498.84;;;16.07;76.01
72116;BME280;59991;52.140;5.428;2022-07-12T00:30:23;102475.94;;;16.00;76.50
72116;BME280;59991;52.140;5.428;2022-07-12T00:32:25;102472.41;;;15.99;76.66
72116;BME280;59991;52.140;5.428;2022-07-12T00:34:26;102484.53;;;15.95;76.86
72116;BME280;59991;52.140;5.428;2022-07-12T00:36:28;102492.38;;;15.93;76.64
72116;BME280;59991;52.140;5.428;2022-07-12T00:38:29;102482.50;;;15.88;76.68
72116;BME280;59991;52.140;5.428;2022-07-12T00:40:31;102482.44;;;15.84;76.50
72116;BME280;59991;52.140;5.428;2022-07-12T00:42:32;102479.25;;;15.82;76.63
72116;BME280;59991;52.140;5.428;2022-07-12T00:44:34;102484.75;;;15.82;77.05
72116;BME280;59991;52.140;5.428;2022-07-12T00:46:35;102478.41;;;15.75;76.88
72116;BME280;59991;52.140;5.428;2022-07-12T00:48:37;102481.09;;;15.71;77.19
72116;BME280;59991;52.140;5.428;2022-07-12T00:50:39;102480.66;;;15.69;76.76
72116;BME280;59991;52.140;5.428;2022-07-12T00:52:42;102483.78;;;15.68;77.01
72116;BME280;59991;52.140;5.428;2022-07-12T00:54:44;102479.81;;;15.65;77.33
72116;BME280;59991;52.140;5.428;2022-07-12T00:56:46;102490.41;;;15.63;77.16
72116;BME280;59991;52.140;5.428;2022-07-12T00:58:47;102480.13;;;15.60;77.76
72116;BME280;59991;52.140;5.428;2022-07-12T01:00:49;102499.00;;;15.62;76.99
72116;BME280;59991;52.140;5.428;2022-07-12T01:02:55;102497.78;;;15.59;76.86
72116;BME280;59991;52.140;5.428;2022-07-12T01:04:58;102505.28;;;15.59;77.22
72116;BME280;59991;52.140;5.428;2022-07-12T01:06:59;102503.69;;;15.58;77.24
72116;BME280;59991;52.140;5.428;2022-07-12T01:09:01;102507.09;;;15.51;77.62
72116;BME280;59991;52.140;5.428;2022-07-12T01:11:03;102509.72;;;15.44;77.67
72116;BME280;59991;52.140;5.428;2022-07-12T01:13:04;102510.53;;;15.44;77.80
72116;BME280;59991;52.140;5.428;2022-07-12T01:15:07;102513.22;;;15.41;77.29
72116;BME280;59991;52.140;5.428;2022-07-12T01:17:09;102508.09;;;15.39;77.11
72116;BME280;59991;52.140;5.428;2022-07-12T01:19:13;102515.94;;;15.37;77.37
72116;BME280;59991;52.140;5.428;2022-07-12T01:21:22;102511.53;;;15.33;77.38
72116;BME280;59991;52.140;5.428;2022-07-12T01:23:24;102513.06;;;15.30;77.58
72116;BME280;59991;52.140;5.428;2022-07-12T01:25:26;102522.09;;;15.31;77.83
72116;BME280;59991;52.140;5.428;2022-07-12T01:27:29;102520.06;;;15.28;77.56
72116;BME280;59991;52.140;5.428;2022-07-12T01:29:31;102518.06;;;15.25;77.72
72116;BME280;59991;52.140;5.428;2022-07-12T01:31:34;102530.66;;;15.26;78.08
72116;BME280;59991;52.140;5.428;2022-07-12T01:33:37;102521.13;;;15.19;78.55
72116;BME280;59991;52.140;5.428;2022-07-12T01:35:39;102519.50;;;15.15;78.09
72116;BME280;59991;52.140;5.428;2022-07-12T01:37:42;102514.72;;;15.12;78.53
72116;BME280;59991;52.140;5.428;2022-07-12T01:39:45;102513.50;;;15.09;78.28
72116;BME280;59991;52.140;5.428;2022-07-12T01:41:48;102516.19;;;15.06;78.15
72116;BME280;59991;52.140;5.428;2022-07-12T01:43:52;102518.13;;;15.05;78.25
72116;BME280;59991;52.140;5.428;2022-07-12T01:46:11;102521.25;;;15.04;78.27
72116;BME280;59991;52.140;5.428;2022-07-12T01:48:13;102522.41;;;15.03;78.14
72116;BME280;59991;52.140;5.428;2022-07-12T01:50:15;102517.19;;;14.94;78.44
72116;BME280;59991;52.140;5.428;2022-07-12T01:52:17;102518.75;;;14.95;77.71
72116;BME280;59991;52.140;5.428;2022-07-12T01:54:36;102506.13;;;14.91;78.11
72116;BME280;59991;52.140;5.428;2022-07-12T01:56:38;102502.16;;;14.88;78.26
72116;BME280;59991;52.140;5.428;2022-07-12T01:58:39;102516.69;;;14.89;78.03
72116;BME280;59991;52.140;5.428;2022-07-12T02:00:41;102508.81;;;14.87;77.98
72116;BME280;59991;52.140;5.428;2022-07-12T02:02:44;102507.16;;;14.82;77.83
72116;BME280;59991;52.140;5.428;2022-07-12T02:04:47;102508.34;;;14.81;77.79
72116;BME280;59991;52.140;5.428;2022-07-12T02:06:49;102500.81;;;14.78;77.61
72116;BME280;59991;52.140;5.428;2022-07-12T02:08:51;102497.28;;;14.78;77.43
72116;BME280;59991;52.140;5.428;2022-07-12T02:10:52;102501.97;;;14.77;77.70
72116;BME280;59991;52.140;5.428;2022-07-12T02:12:53;102499.16;;;14.74;78.38
72116;BME280;59991;52.140;5.428;2022-07-12T02:14:56;102501.47;;;14.72;78.57
72116;BME280;59991;52.140;5.428;2022-07-12T02:16:57;102488.41;;;14.65;78.68
72116;BME280;59991;52.140;5.428;2022-07-12T02:18:58;102482.06;;;14.61;79.18
72116;BME280;59991;52.140;5.428;2022-07-12T02:21:00;102494.22;;;14.60;78.56
72116;BME280;59991;52.140;5.428;2022-07-12T02:23:01;102490.25;;;14.58;79.08
72116;BME280;59991;52.140;5.428;2022-07-12T02:25:03;102499.72;;;14.60;78.76
72116;BME280;59991;52.140;5.428;2022-07-12T02:27:05;102493.41;;;14.60;78.58
72116;BME280;59991;52.140;5.428;2022-07-12T02:29:07;102498.84;;;14.56;79.14
72116;BME280;59991;52.140;5.428;2022-07-12T02:31:08;102496.03;;;14.52;78.89
72116;BME280;59991;52.140;5.428;2022-07-12T02:33:10;102496.38;;;14.51;79.14
72116;BME280;59991;52.140;5.428;2022-07-12T02:35:12;102490.81;;;14.47;79.00
72116;BME280;59991;52.140;5.428;2022-07-12T02:37:13;102486.91;;;14.48;78.93
72116;BME280;59991;52.140;5.428;2022-07-12T02:39:15;102490.03;;;14.47;78.67
72116;BME280;59991;52.140;5.428;2022-07-12T02:41:17;102495.88;;;14.45;78.51
72116;BME280;59991;52.140;5.428;2022-07-12T02:43:44;102500.16;;;14.43;78.73
72116;BME280;59991;52.140;5.428;2022-07-12T02:45:46;102495.03;;;14.41;79.01
72116;BME280;59991;52.140;5.428;2022-07-12T02:47:47;102495.03;;;14.41;79.17
72116;BME280;59991;52.140;5.428;2022-07-12T02:49:49;102494.94;;;14.38;79.01
72116;BME280;59991;52.140;5.428;2022-07-12T02:51:50;102494.56;;;14.39;79.09
72116;BME280;59991;52.140;5.428;2022-07-12T02:53:52;102500.06;;;14.39;79.01
72116;BME280;59991;52.140;5.428;2022-07-12T02:55:53;102504.69;;;14.35;79.58
72116;BME280;59991;52.140;5.428;2022-07-12T02:57:55;102503.47;;;14.33;79.44
72116;BME280;59991;52.140;5.428;2022-07-12T02:59:56;102499.84;;;14.29;79.56
72116;BME280;59991;52.140;5.428;2022-07-12T03:01:57;102493.56;;;14.28;79.54
72116;BME280;59991;52.140;5.428;2022-07-12T03:03:59;102502.22;;;14.30;78.82
72116;BME280;59991;52.140;5.428;2022-07-12T03:06:00;102502.59;;;14.29;79.28
72116;BME280;59991;52.140;5.428;2022-07-12T03:08:03;102502.50;;;14.25;79.06
72116;BME280;59991;52.140;5.428;2022-07-12T03:10:05;102498.19;;;14.24;78.96
72116;BME280;59991;52.140;5.428;2022-07-12T03:12:07;102501.31;;;14.23;79.28
72116;BME280;59991;52.140;5.428;2022-07-12T03:14:08;102501.66;;;14.21;79.02
72116;BME280;59991;52.140;5.428;2022-07-12T03:16:10;102494.59;;;14.20;79.63
72116;BME280;59991;52.140;5.428;2022-07-12T03:18:11;102494.16;;;14.18;79.24
72116;BME280;59991;52.140;5.428;2022-07-12T03:20:13;102489.38;;;14.15;78.91
72116;BME280;59991;52.140;5.428;2022-07-12T03:22:16;102491.34;;;14.14;79.89
72116;BME280;59991;52.140;5.428;2022-07-12T03:24:17;102494.44;;;14.13;80.03
72116;BME280;59991;52.140;5.428;2022-07-12T03:26:18;102484.97;;;14.10;80.09
72116;BME280;59991;52.140;5.428;2022-07-12T03:28:21;102489.59;;;14.06;80.07
72116;BME280;59991;52.140;5.428;2022-07-12T03:30:23;102490.38;;;14.07;79.68
72116;BME280;59991;52.140;5.428;2022-07-12T03:32:24;102486.84;;;14.06;80.30
72116;BME280;59991;52.140;5.428;2022-07-12T03:34:26;102486.84;;;14.06;80.29
72116;BME280;59991;52.140;5.428;2022-07-12T03:36:28;102489.94;;;14.05;80.07
72116;BME280;59991;52.140;5.428;2022-07-12T03:38:29;102489.19;;;14.04;80.76
72116;BME280;59991;52.140;5.428;2022-07-12T03:40:31;102495.03;;;14.03;79.70
72116;BME280;59991;52.140;5.428;2022-07-12T03:42:33;102490.69;;;14.02;80.00
72116;BME280;59991;52.140;5.428;2022-07-12T03:44:36;102493.78;;;14.00;79.96
72116;BME280;59991;52.140;5.428;2022-07-12T03:46:37;102499.34;;;14.04;80.59
72116;BME280;59991;52.140;5.428;2022-07-12T03:48:39;102495.75;;;14.00;80.42
72116;BME280;59991;52.140;5.428;2022-07-12T03:50:40;102500.78;;;13.98;80.97
72116;BME280;59991;52.140;5.428;2022-07-12T03:52:42;102497.16;;;13.94;80.25
72116;BME280;59991;52.140;5.428;2022-07-12T03:54:44;102499.56;;;13.95;80.60
72116;BME280;59991;52.140;5.428;2022-07-12T03:56:45;102500.34;;;13.96;80.56
72116;BME280;59991;52.140;5.428;2022-07-12T03:59:05;102499.91;;;13.94;80.55
72116;BME280;59991;52.140;5.428;2022-07-12T04:01:07;102499.13;;;13.93;80.47
72116;BME280;59991;52.140;5.428;2022-07-12T04:03:09;102499.47;;;13.92;80.70
72116;BME280;59991;52.140;5.428;2022-07-12T04:05:11;102500.63;;;13.91;80.75
72116;BME280;59991;52.140;5.428;2022-07-12T04:07:13;102499.03;;;13.90;81.08
72116;BME280;59991;52.140;5.428;2022-07-12T04:09:14;102508.72;;;13.83;80.91
72116;BME280;59991;52.140;5.428;2022-07-12T04:11:16;102504.44;;;13.86;81.22
72116;BME280;59991;52.140;5.428;2022-07-12T04:13:18;102508.38;;;13.85;80.92
72116;BME280;59991;52.140;5.428;2022-07-12T04:15:19;102510.66;;;13.83;80.89
72116;BME280;59991;52.140;5.428;2022-07-12T04:17:21;102511.03;;;13.81;80.83
72116;BME280;59991;52.140;5.428;2022-07-12T04:19:23;102511.09;;;13.85;80.87
72116;BME280;59991;52.140;5.428;2022-07-12T04:21:28;102506.38;;;13.86;81.08
72116;BME280;59991;52.140;5.428;2022-07-12T04:23:30;102502.50;;;13.87;81.16
72116;BME280;59991;52.140;5.428;2022-07-12T04:25:31;102493.06;;;13.84;81.23
72116;BME280;59991;52.140;5.428;2022-07-12T04:27:33;102504.88;;;13.88;81.09
72116;BME280;59991;52.140;5.428;2022-07-12T04:29:34;102501.78;;;13.90;80.69
72116;BME280;59991;52.140;5.428;2022-07-12T04:31:53;102499.03;;;13.90;81.33
72116;BME280;59991;52.140;5.428;2022-07-12T04:33:54;102497.88;;;13.91;81.22
72116;BME280;59991;52.140;5.428;2022-07-12T04:35:56;102490.81;;;13.90;81.38
72116;BME280;59991;52.140;5.428;2022-07-12T04:37:57;102499.13;;;13.93;81.48
72116;BME280;59991;52.140;5.428;2022-07-12T04:39:59;102496.81;;;13.95;81.66
72116;BME280;59991;52.140;5.428;2022-07-12T04:42:00;102505.13;;;13.99;82.50
72116;BME280;59991;52.140;5.428;2022-07-12T04:44:08;102499.56;;;13.95;82.45
72116;BME280;59991;52.140;5.428;2022-07-12T04:46:09;102504.31;;;13.98;82.67
72116;BME280;59991;52.140;5.428;2022-07-12T04:48:11;102508.31;;;14.01;82.44
72116;BME280;59991;52.140;5.428;2022-07-12T04:50:13;102514.63;;;14.05;82.80
72116;BME280;59991;52.140;5.428;2022-07-12T04:52:14;102509.59;;;14.07;82.05
72116;BME280;59991;52.140;5.428;2022-07-12T04:54:16;102505.34;;;14.09;81.94
72116;BME280;59991;52.140;5.428;2022-07-12T04:56:17;102518.34;;;14.12;82.39
72116;BME280;59991;52.140;5.428;2022-07-12T04:58:19;102519.66;;;14.18;82.56
72116;BME280;59991;52.140;5.428;2022-07-12T05:00:21;102524.41;;;14.22;82.13
72116;BME280;59991;52.140;5.428;2022-07-12T05:02:22;102515.44;;;14.25;82.06
72116;BME280;59991;52.140;5.428;2022-07-12T05:04:24;102521.44;;;14.30;81.88
72116;BME280;59991;52.140;5.428;2022-07-12T05:06:25;102513.63;;;14.32;81.78
72116;BME280;59991;52.140;5.428;2022-07-12T05:08:26;102521.94;;;14.36;81.42
72116;BME280;59991;52.140;5.428;2022-07-12T05:10:28;102525.13;;;14.38;81.63
72116;BME280;59991;52.140;5.428;2022-07-12T05:12:29;102526.72;;;14.39;81.47
72116;BME280;59991;52.140;5.428;2022-07-12T05:14:31;102533.16;;;14.46;81.78
72116;BME280;59991;52.140;5.428;2022-07-12T05:16:32;102535.97;;;14.50;82.01
72116;BME280;59991;52.140;5.428;2022-07-12T05:18:34;102541.53;;;14.54;82.16
72116;BME280;59991;52.140;5.428;2022-07-12T05:20:36;102546.75;;;14.59;82.17
72116;BME280;59991;52.140;5.428;2022-07-12T05:22:37;102546.41;;;14.64;81.99
72116;BME280;59991;52.140;5.428;2022-07-12T05:24:39;102548.09;;;14.68;83.63
72116;BME280;59991;52.140;5.428;2022-07-12T05:26:41;102557.56;;;14.71;83.59
72116;BME280;59991;52.140;5.428;2022-07-12T05:28:42;102557.25;;;14.76;84.00
72116;BME280;59991;52.140;5.428;2022-07-12T05:30:45;102565.22;;;14.81;83.76
72116;BME280;59991;52.140;5.428;2022-07-12T05:32:46;102569.66;;;14.89;83.85
72116;BME280;59991;52.140;5.428;2022-07-12T05:34:48;102559.16;;;14.95;83.98
72116;BME280;59991;52.140;5.428;2022-07-12T05:36:49;102572.22;;;15.01;83.93
72116;BME280;59991;52.140;5.428;2022-07-12T05:38:51;102569.19;;;15.06;84.00
72116;BME280;59991;52.140;5.428;2022-07-12T05:40:52;102566.19;;;15.15;84.04
72116;BME280;59991;52.140;5.428;2022-07-12T05:42:54;102561.19;;;15.20;84.17
72116;BME280;59991;52.140;5.428;2022-07-12T05:44:56;102570.72;;;15.27;83.99
72116;BME280;59991;52.140;5.428;2022-07-12T05:46:57;102572.78;;;15.33;84.12
72116;BME280;59991;52.140;5.428;2022-07-12T05:48:59;102567.00;;;15.38;83.94
72116;BME280;59991;52.140;5.428;2022-07-12T05:51:00;102571.06;;;15.48;84.56
72116;BME280;59991;52.140;5.428;2022-07-12T05:53:22;102568.88;;;15.57;85.26
72116;BME280;59991;52.140;5.428;2022-07-12T05:55:41;102563.53;;;15.68;85.33
72116;BME280;59991;52.140;5.428;2022-07-12T05:57:43;102565.63;;;15.78;85.11
72116;BME280;59991;52.140;5.428;2022-07-12T05:59:44;102566.97;;;15.87;85.40
72116;BME280;59991;52.140;5.428;2022-07-12T06:01:46;102568.66;;;15.96;85.64
72116;BME280;59991;52.140;5.428;2022-07-12T06:03:47;102567.97;;;16.02;84.94
72116;BME280;59991;52.140;5.428;2022-07-12T06:05:48;102550.75;;;16.09;85.36
72116;BME280;59991;52.140;5.428;2022-07-12T06:07:50;102559.06;;;16.12;84.90
72116;BME280;59991;52.140;5.428;2022-07-12T06:09:51;102566.19;;;16.17;84.54
72116;BME280;59991;52.140;5.428;2022-07-12T06:11:53;102561.88;;;16.19;84.77
72116;BME280;59991;52.140;5.428;2022-07-12T06:13:55;102553.69;;;16.23;84.52
72116;BME280;59991;52.140;5.428;2022-07-12T06:15:56;102554.94;;;16.29;84.33
72116;BME280;59991;52.140;5.428;2022-07-12T06:17:57;102549.50;;;16.36;84.30
72116;BME280;59991;52.140;5.428;2022-07-12T06:19:59;102550.41;;;16.44;84.04
72116;BME280;59991;52.140;5.428;2022-07-12T06:22:00;102546.53;;;16.48;83.55
72116;BME280;59991;52.140;5.428;2022-07-12T06:24:02;102555.63;;;16.56;83.59
72116;BME280;59991;52.140;5.428;2022-07-12T06:26:21;102554.22;;;16.66;83.04
72116;BME280;59991;52.140;5.428;2022-07-12T06:28:23;102556.28;;;16.76;83.49
72116;BME280;59991;52.140;5.428;2022-07-12T06:30:24;102555.97;;;16.84;82.94
72116;BME280;59991;52.140;5.428;2022-07-12T06:32:26;102558.84;;;16.95;82.46
72116;BME280;59991;52.140;5.428;2022-07-12T06:34:27;102561.66;;;17.02;82.67
72116;BME280;59991;52.140;5.428;2022-07-12T06:36:29;102564.53;;;17.16;82.97
72116;BME280;59991;52.140;5.428;2022-07-12T06:38:31;102566.22;;;17.28;82.20
72116;BME280;59991;52.140;5.428;2022-07-12T06:40:41;102557.66;;;17.40;82.57
72116;BME280;59991;52.140;5.428;2022-07-12T06:42:43;102566.03;;;17.51;81.57
72116;BME280;59991;52.140;5.428;2022-07-12T06:44:44;102565.72;;;17.63;81.17
72116;BME280;59991;52.140;5.428;2022-07-12T06:46:46;102572.50;;;17.76;80.87
72116;BME280;59991;52.140;5.428;2022-07-12T06:48:50;102565.13;;;17.87;80.79
72116;BME280;59991;52.140;5.428;2022-07-12T06:50:51;102566.31;;;17.93;80.38
72116;BME280;59991;52.140;5.428;2022-07-12T06:52:52;102563.97;;;17.99;80.75
72116;BME280;59991;52.140;5.428;2022-07-12T06:55:12;102567.56;;;18.10;80.75
72116;BME280;59991;52.140;5.428;2022-07-12T06:57:15;102556.56;;;18.17;80.46
72116;BME280;59991;52.140;5.428;2022-07-12T06:59:16;102564.91;;;18.24;80.64
72116;BME280;59991;52.140;5.428;2022-07-12T07:01:17;102560.94;;;18.29;79.97
72116;BME280;59991;52.140;5.428;2022-07-12T07:03:19;102566.50;;;18.36;80.58
72116;BME280;59991;52.140;5.428;2022-07-12T07:05:21;102569.69;;;18.38;79.23
72116;BME280;59991;52.140;5.428;2022-07-12T07:07:22;102568.53;;;18.43;79.36
72116;BME280;59991;52.140;5.428;2022-07-12T07:09:24;102574.84;;;18.43;78.87
72116;BME280;59991;52.140;5.428;2022-07-12T07:11:25;102573.25;;;18.42;79.29
72116;BME280;59991;52.140;5.428;2022-07-12T07:13:27;102567.72;;;18.42;78.81
72116;BME280;59991;52.140;5.428;2022-07-12T07:15:28;102560.66;;;18.45;78.70
72116;BME280;59991;52.140;5.428;2022-07-12T07:17:30;102566.16;;;18.48;78.67
72116;BME280;59991;52.140;5.428;2022-07-12T07:19:31;102569.31;;;18.50;78.61
72116;BME280;59991;52.140;5.428;2022-07-12T07:21:33;102571.69;;;18.52;78.16
72116;BME280;59991;52.140;5.428;2022-07-12T07:23:34;102577.22;;;18.55;78.94
72116;BME280;59991;52.140;5.428;2022-07-12T07:25:35;102574.16;;;18.64;79.36
72116;BME280;59991;52.140;5.428;2022-07-12T07:27:37;102572.19;;;18.75;78.40
72116;BME280;59991;52.140;5.428;2022-07-12T07:29:40;102566.69;;;18.89;78.77
72116;BME280;59991;52.140;5.428;2022-07-12T07:31:59;102560.41;;;19.03;78.26
72116;BME280;59991;52.140;5.428;2022-07-12T07:34:01;102565.53;;;19.19;77.85
72116;BME280;59991;52.140;5.428;2022-07-12T07:36:03;102565.94;;;19.31;76.42
72116;BME280;59991;52.140;5.428;2022-07-12T07:38:04;102563.97;;;19.43;76.17
72116;BME280;59991;52.140;5.428;2022-07-12T07:40:08;102567.13;;;19.59;76.35
72116;BME280;59991;52.140;5.428;2022-07-12T07:42:09;102563.94;;;19.78;77.02
72116;BME280;59991;52.140;5.428;2022-07-12T07:44:11;102569.03;;;19.90;75.42
72116;BME280;59991;52.140;5.428;2022-07-12T07:46:12;102566.25;;;19.97;76.71
72116;BME280;59991;52.140;5.428;2022-07-12T07:48:13;102560.69;;;20.05;75.72
72116;BME280;59991;52.140;5.428;2022-07-12T07:50:26;102563.44;;;20.05;75.30
72116;BME280;59991;52.140;5.428;2022-07-12T07:52:28;102567.41;;;20.07;73.47
72116;BME280;59991;52.140;5.428;2022-07-12T07:54:29;102566.59;;;20.14;73.38
72116;BME280;59991;52.140;5.428;2022-07-12T07:56:48;102560.59;;;20.37;74.24
72116;BME280;59991;52.140;5.428;2022-07-12T07:58:50;102551.78;;;20.56;72.65
72116;BME280;59991;52.140;5.428;2022-07-12T08:00:53;102551.78;;;20.56;71.71
72116;BME280;59991;52.140;5.428;2022-07-12T08:02:57;102558.16;;;20.49;70.53
72116;BME280;59991;52.140;5.428;2022-07-12T08:04:59;102555.78;;;20.44;70.83
72116;BME280;59991;52.140;5.428;2022-07-12T08:07:00;102556.97;;;20.43;71.68
72116;BME280;59991;52.140;5.428;2022-07-12T08:09:02;102559.34;;;20.45;72.06
72116;BME280;59991;52.140;5.428;2022-07-12T08:11:13;102560.91;;;20.53;71.54
72116;BME280;59991;52.140;5.428;2022-07-12T08:13:14;102570.00;;;20.57;72.56
72116;BME280;59991;52.140;5.428;2022-07-12T08:15:16;102560.44;;;20.61;71.78
72116;BME280;59991;52.140;5.428;2022-07-12T08:17:17;102568.34;;;20.66;71.00
72116;BME280;59991;52.140;5.428;2022-07-12T08:19:45;102560.41;;;20.72;70.49
72116;BME280;59991;52.140;5.428;2022-07-12T08:21:46;102565.94;;;20.76;70.79
72116;BME280;59991;52.140;5.428;2022-07-12T08:23:49;102567.47;;;20.80;71.20
72116;BME280;59991;52.140;5.428;2022-07-12T08:25:50;102571.41;;;20.83;69.83
72116;BME280;59991;52.140;5.428;2022-07-12T08:27:52;102567.47;;;20.80;69.60
72116;BME280;59991;52.140;5.428;2022-07-12T08:29:54;102577.72;;;20.87;70.36
72116;BME280;59991;52.140;5.428;2022-07-12T08:31:55;102569.38;;;20.90;69.33
72116;BME280;59991;52.140;5.428;2022-07-12T08:33:56;102572.47;;;21.03;70.16
72116;BME280;59991;52.140;5.428;2022-07-12T08:35:58;102566.06;;;21.13;68.96
72116;BME280;59991;52.140;5.428;2022-07-12T08:37:59;102573.09;;;21.28;69.04
72116;BME280;59991;52.140;5.428;2022-07-12T08:40:01;102575.31;;;21.44;67.97
72116;BME280;59991;52.140;5.428;2022-07-12T08:42:04;102569.72;;;21.51;69.96
72116;BME280;59991;52.140;5.428;2022-07-12T08:44:08;102585.06;;;21.63;68.17
72116;BME280;59991;52.140;5.428;2022-07-12T08:46:12;102566.84;;;21.62;67.30
72116;BME280;59991;52.140;5.428;2022-07-12T08:48:13;102573.97;;;21.63;66.41
72116;BME280;59991;52.140;5.428;2022-07-12T08:50:16;102565.97;;;21.68;66.72
72116;BME280;59991;52.140;5.428;2022-07-12T08:52:26;102562.38;;;21.71;66.64
72116;BME280;59991;52.140;5.428;2022-07-12T08:54:38;102556.72;;;21.79;65.95
72116;BME280;59991;52.140;5.428;2022-07-12T08:56:41;102554.34;;;21.81;64.90
72116;BME280;59991;52.140;5.428;2022-07-12T08:58:43;102556.63;;;21.89;65.37
72116;BME280;59991;52.140;5.428;2022-07-12T09:00:45;102559.31;;;22.00;65.02
72116;BME280;59991;52.140;5.428;2022-07-12T09:02:54;102554.09;;;22.05;64.06
72116;BME280;59991;52.140;5.428;2022-07-12T09:05:08;102547.53;;;22.23;65.22
72116;BME280;59991;52.140;5.428;2022-07-12T09:07:13;102545.31;;;22.41;64.71
72116;BME280;59991;52.140;5.428;2022-07-12T09:09:33;102549.56;;;22.49;63.52
72116;BME280;59991;52.140;5.428;2022-07-12T09:11:38;102554.19;;;22.59;63.10
72116;BME280;59991;52.140;5.428;2022-07-12T09:13:58;102551.13;;;22.81;62.46
72116;BME280;59991;52.140;5.428;2022-07-12T09:16:12;102550.84;;;22.98;63.15
72116;BME280;59991;52.140;5.428;2022-07-12T09:18:14;102551.00;;;23.11;61.87
72116;BME280;59991;52.140;5.428;2022-07-12T09:20:28;102553.59;;;23.25;61.10
72116;BME280;59991;52.140;5.428;2022-07-12T09:22:30;102543.47;;;23.35;60.86
72116;BME280;59991;52.140;5.428;2022-07-12T09:24:32;102547.81;;;23.36;59.00
72116;BME280;59991;52.140;5.428;2022-07-12T09:26:33;102547.75;;;23.39;60.39
72116;BME280;59991;52.140;5.428;2022-07-12T09:28:35;102546.75;;;23.50;59.09
72116;BME280;59991;52.140;5.428;2022-07-12T09:30:47;102551.88;;;23.55;59.29
72116;BME280;59991;52.140;5.428;2022-07-12T09:32:57;102551.03;;;23.58;58.85
72116;BME280;59991;52.140;5.428;2022-07-12T09:35:17;102543.19;;;23.72;59.81
72116;BME280;59991;52.140;5.428;2022-07-12T09:37:39;102542.47;;;23.88;57.64
72116;BME280;59991;52.140;5.428;2022-07-12T09:39:40;102547.19;;;23.91;56.41
72116;BME280;59991;52.140;5.428;2022-07-12T09:41:43;102539.94;;;23.97;57.73
72116;BME280;59991;52.140;5.428;2022-07-12T09:43:45;102545.78;;;24.03;58.03
72116;BME280;59991;52.140;5.428;2022-07-12T09:45:47;102538.47;;;24.09;56.19
72116;BME280;59991;52.140;5.428;2022-07-12T09:47:49;102540.75;;;24.14;56.83
72116;BME280;59991;52.140;5.428;2022-07-12T09:49:53;102536.47;;;24.29;56.75
72116;BME280;59991;52.140;5.428;2022-07-12T09:51:56;102541.75;;;24.43;57.07
72116;BME280;59991;52.140;5.428;2022-07-12T09:53:58;102534.50;;;24.46;55.69
72116;BME280;59991;52.140;5.428;2022-07-12T09:58:34;102533.84;;;24.58;55.25
72116;BME280;59991;52.140;5.428;2022-07-12T10:00:38;102526.88;;;24.66;54.61
72116;BME280;59991;52.140;5.428;2022-07-12T10:02:40;102541.44;;;24.74;54.86
72116;BME280;59991;52.140;5.428;2022-07-12T10:04:42;102535.53;;;24.88;56.70
72116;BME280;59991;52.140;5.428;2022-07-12T10:06:44;102542.53;;;24.96;54.34
72116;BME280;59991;52.140;5.428;2022-07-12T10:08:45;102539.47;;;25.07;53.99
72116;BME280;59991;52.140;5.428;2022-07-12T10:10:48;102548.13;;;25.12;53.23
72116;BME280;59991;52.140;5.428;2022-07-12T10:12:51;102548.38;;;25.18;53.65
72116;BME280;59991;52.140;5.428;2022-07-12T10:15:19;102552.81;;;25.32;54.35
72116;BME280;59991;52.140;5.428;2022-07-12T10:17:23;102553.66;;;25.45;54.70
72116;BME280;59991;52.140;5.428;2022-07-12T10:19:29;102550.34;;;25.50;51.87
72116;BME280;59991;52.140;5.428;2022-07-12T10:21:40;102549.53;;;25.50;52.78
72116;BME280;59991;52.140;5.428;2022-07-12T10:23:41;102554.00;;;25.47;52.54
72116;BME280;59991;52.140;5.428;2022-07-12T10:26:37;102546.56;;;25.57;54.34
72116;BME280;59991;52.140;5.428;2022-07-12T10:29:02;102543.59;;;25.64;54.54
72116;BME280;59991;52.140;5.428;2022-07-12T10:31:04;102542.81;;;25.63;54.44
72116;BME280;59991;52.140;5.428;2022-07-12T10:33:23;102546.75;;;25.66;53.81
72116;BME280;59991;52.140;5.428;2022-07-12T10:35:28;102545.59;;;25.63;53.19
72116;BME280;59991;52.140;5.428;2022-07-12T10:42:40;102543.78;;;26.14;47.48
72116;BME280;59991;52.140;5.428;2022-07-12T10:44:47;102553.47;;;25.97;48.69
72116;BME280;59991;52.140;5.428;2022-07-12T10:47:02;102540.72;;;25.67;50.92
72116;BME280;59991;52.140;5.428;2022-07-12T10:49:23;102546.56;;;25.57;50.87
72116;BME280;59991;52.140;5.428;2022-07-12T10:51:27;102553.75;;;25.41;50.52
72116;BME280;59991;52.140;5.428;2022-07-12T10:53:47;102547.22;;;25.32;51.02
72116;BME280;59991;52.140;5.428;2022-07-12T10:56:24;102547.97;;;25.48;52.27
72116;BME280;59991;52.140;5.428;2022-07-12T10:58:42;102544.00;;;25.78;52.58